Time;durP1;ratioP1;P1;durP2;ratioP2;P2;SDS_P1;SDS_P2;PMS_P1;PMS_P2;Temp;Humidity;BMP_temperature;BMP_pressure;BME280_temperature;BME280_humidity;BME280_pressure;Samples;Min_cycle;Max_cycle;Signal;HPM_P1;HPM_P2
2021/09/01 00:01:04;;;;;;;7.70;6.03;;;21.10;40.80;;;;;;4935984;29;20291;-66
2021/09/01 00:03:30;;;;;;;7.73;6.33;;;21.10;40.90;;;;;;4936059;29;20183;-66
2021/09/01 00:05:55;;;;;;;6.07;5.57;;;21.10;40.90;;;;;;4936117;29;20272;-68
2021/09/01 00:08:21;;;;;;;6.00;5.50;;;21.10;40.90;;;;;;4935759;29;20176;-69
2021/09/01 00:10:46;;;;;;;6.40;6.00;;;21.10;41.00;;;;;;4935811;29;20263;-66
2021/09/01 00:13:12;;;;;;;5.60;5.10;;;21.10;41.00;;;;;;4936024;29;20738;-66
2021/09/01 00:15:37;;;;;;;6.13;5.53;;;21.10;41.00;;;;;;4935905;29;20172;-66
2021/09/01 00:18:03;;;;;;;5.60;5.20;;;21.10;41.00;;;;;;4935867;29;20215;-67
2021/09/01 00:20:29;;;;;;;5.07;4.70;;;21.10;41.00;;;;;;4935602;29;20231;-65
2021/09/01 00:22:54;;;;;;;5.43;5.03;;;21.10;41.00;;;;;;4935679;29;20180;-66
2021/09/01 00:25:20;;;;;;;6.67;6.07;;;21.10;41.00;;;;;;4935934;29;20179;-68
2021/09/01 00:27:46;;;;;;;6.00;5.60;;;21.00;40.90;;;;;;4935789;29;20284;-67
2021/09/01 00:30:12;;;;;;;5.77;5.37;;;21.10;41.10;;;;;;4935358;29;20428;-66
2021/09/01 00:32:38;;;;;;;5.50;5.07;;;21.00;40.90;;;;;;4935636;29;20587;-65
2021/09/01 00:35:04;;;;;;;6.20;5.80;;;21.10;41.10;;;;;;4935524;29;20408;-64
2021/09/01 00:37:30;;;;;;;6.00;5.50;;;21.10;41.00;;;;;;4935607;29;20207;-65
2021/09/01 00:39:55;;;;;;;6.17;5.43;;;21.10;41.00;;;;;;4935442;29;20974;-66
2021/09/01 00:42:21;;;;;;;5.77;5.27;;;21.10;41.00;;;;;;4935596;29;20666;-65
2021/09/01 00:44:47;;;;;;;5.30;4.90;;;21.00;40.90;;;;;;4935428;29;20307;-66
2021/09/01 00:47:16;;;;;;;5.53;5.03;;;21.00;40.90;;;;;;4935366;29;20180;-65
2021/09/01 00:49:41;;;;;;;5.43;5.00;;;21.10;41.20;;;;;;4935031;29;20645;-66
2021/09/01 00:52:07;;;;;;;4.80;4.40;;;21.00;41.10;;;;;;4935167;29;20619;-67
2021/09/01 00:54:32;;;;;;;5.73;4.93;;;21.10;41.10;;;;;;4935236;29;20324;-65
2021/09/01 00:57:02;;;;;;;5.53;5.13;;;21.00;41.10;;;;;;4935159;29;20180;-66
2021/09/01 00:59:30;;;;;;;5.00;4.60;;;21.00;41.20;;;;;;4934862;29;20195;-66
2021/09/01 01:01:56;;;;;;;5.97;5.37;;;21.00;41.20;;;;;;4935048;29;20818;-65
2021/09/01 01:04:23;;;;;;;6.10;5.60;;;21.00;41.20;;;;;;4934945;29;20412;-66
2021/09/01 01:06:48;;;;;;;5.43;5.03;;;21.00;41.20;;;;;;4935017;29;20416;-65
2021/09/01 01:09:14;;;;;;;5.77;5.27;;;21.00;41.20;;;;;;4934730;29;20514;-65
2021/09/01 01:11:59;;;;;;;5.73;5.23;;;21.00;41.20;;;;;;4934992;29;20682;-67
2021/09/01 01:14:25;;;;;;;5.10;4.70;;;21.00;41.20;;;;;;4934988;29;20223;-65
2021/09/01 01:16:51;;;;;;;5.50;5.10;;;21.00;41.20;;;;;;4934888;29;20411;-66
2021/09/01 01:19:19;;;;;;;5.13;4.83;;;21.00;41.20;;;;;;4934558;29;20431;-66
2021/09/01 01:21:45;;;;;;;5.17;4.77;;;21.00;41.20;;;;;;4934866;29;20419;-65
2021/09/01 01:24:11;;;;;;;6.63;6.10;;;21.00;41.20;;;;;;4934772;29;20474;-65
2021/09/01 01:26:36;;;;;;;5.00;4.67;;;21.00;41.20;;;;;;4934835;29;20179;-66
2021/09/01 01:29:05;;;;;;;6.47;5.87;;;21.00;41.20;;;;;;4934507;29;20176;-67
2021/09/01 01:31:31;;;;;;;5.50;5.10;;;21.00;41.20;;;;;;4934611;29;20199;-66
2021/09/01 01:33:57;;;;;;;7.63;5.57;;;21.00;41.20;;;;;;4934646;29;20416;-66
2021/09/01 01:36:25;;;;;;;5.70;5.30;;;21.00;41.20;;;;;;4934686;29;20412;-65
2021/09/01 01:38:51;;;;;;;5.90;5.40;;;21.00;41.10;;;;;;4934512;29;20926;-64
2021/09/01 01:41:16;;;;;;;6.33;5.40;;;21.00;40.90;;;;;;4934554;29;20440;-65
2021/09/01 01:43:46;;;;;;;4.87;4.50;;;21.00;40.90;;;;;;4934687;29;20180;-64
2021/09/01 01:46:12;;;;;;;5.87;5.37;;;21.00;41.00;;;;;;4934570;29;20180;-67
2021/09/01 01:48:38;;;;;;;5.77;5.37;;;21.00;41.10;;;;;;4938458;29;20426;-65
2021/09/01 01:51:03;;;;;;;5.10;4.60;;;21.00;41.20;;;;;;4938326;29;20230;-65
2021/09/01 01:53:30;;;;;;;5.57;5.17;;;21.00;41.20;;;;;;4938481;29;20172;-66
2021/09/01 01:55:55;;;;;;;6.70;5.37;;;21.00;41.20;;;;;;4938478;29;20202;-65
2021/09/01 01:58:21;;;;;;;5.40;4.90;;;21.00;41.20;;;;;;4938175;29;20440;-70
2021/09/01 02:00:46;;;;;;;4.93;4.63;;;20.90;41.10;;;;;;4938083;29;20211;-66
2021/09/01 02:03:12;;;;;;;5.83;5.33;;;21.00;41.20;;;;;;4938433;29;20184;-64
2021/09/01 02:05:37;;;;;;;5.60;5.20;;;20.90;41.10;;;;;;4938433;29;20180;-65
2021/09/01 02:08:03;;;;;;;6.23;5.63;;;21.00;41.20;;;;;;4938273;29;20180;-66
2021/09/01 02:10:29;;;;;;;8.63;5.50;;;20.90;41.10;;;;;;4938105;29;20196;-66
2021/09/01 02:12:55;;;;;;;5.23;4.90;;;20.90;41.10;;;;;;4938056;29;20420;-66
2021/09/01 02:15:20;;;;;;;5.00;4.60;;;21.00;41.20;;;;;;4938067;29;20408;-64
2021/09/01 02:17:46;;;;;;;5.83;5.27;;;20.90;41.10;;;;;;4937962;29;20176;-65
2021/09/01 02:20:13;;;;;;;6.23;5.73;;;20.90;41.10;;;;;;4937684;29;20259;-65
2021/09/01 02:22:41;;;;;;;5.10;4.70;;;20.90;41.10;;;;;;4937894;29;20188;-64
2021/09/01 02:25:08;;;;;;;5.23;4.90;;;20.90;41.10;;;;;;4937774;29;20424;-64
2021/09/01 02:27:34;;;;;;;5.43;5.03;;;20.90;41.10;;;;;;4937832;29;20785;-65
2021/09/01 02:30:00;;;;;;;5.63;5.13;;;20.90;41.10;;;;;;4937486;29;20440;-67
2021/09/01 02:32:26;;;;;;;5.40;5.00;;;20.90;41.10;;;;;;4937609;29;20211;-64
2021/09/01 02:34:51;;;;;;;5.83;5.43;;;20.90;41.10;;;;;;4937737;29;20416;-65
2021/09/01 02:37:17;;;;;;;5.80;5.30;;;20.90;41.10;;;;;;4937680;29;20478;-64
2021/09/01 02:39:43;;;;;;;5.27;4.87;;;20.90;41.10;;;;;;4937352;29;20247;-65
2021/09/01 02:42:08;;;;;;;5.13;4.73;;;20.90;41.10;;;;;;4938435;29;20176;-66
2021/09/01 02:44:34;;;;;;;5.13;4.83;;;20.90;41.10;;;;;;4937686;29;20214;-66
2021/09/01 02:47:00;;;;;;;5.10;4.70;;;20.90;41.10;;;;;;4937492;29;20180;-65
2021/09/01 02:49:25;;;;;;;5.50;5.13;;;20.90;41.10;;;;;;4937176;29;20204;-65
2021/09/01 02:51:51;;;;;;;5.50;5.10;;;20.90;41.10;;;;;;4937362;29;20298;-64
2021/09/01 02:54:16;;;;;;;4.70;4.40;;;20.90;41.10;;;;;;4937365;29;20199;-66
2021/09/01 02:56:42;;;;;;;5.53;5.00;;;20.90;41.10;;;;;;4937365;29;20251;-67
2021/09/01 02:59:07;;;;;;;5.50;5.10;;;20.90;41.10;;;;;;4936691;29;20203;-65
2021/09/01 03:01:33;;;;;;;6.27;5.87;;;20.90;41.10;;;;;;4937084;29;20187;-65
2021/09/01 03:03:59;;;;;;;5.93;5.50;;;20.90;41.10;;;;;;4937203;29;20176;-66
2021/09/01 03:06:24;;;;;;;6.47;5.73;;;20.90;41.10;;;;;;4937231;29;20176;-65
2021/09/01 03:08:50;;;;;;;5.00;4.70;;;20.90;41.10;;;;;;4937037;29;20247;-65
2021/09/01 03:11:15;;;;;;;5.33;4.93;;;20.90;41.10;;;;;;4936884;29;20211;-64
2021/09/01 03:13:42;;;;;;;5.87;5.47;;;20.90;41.10;;;;;;4951797;29;20259;-65
2021/09/01 03:16:07;;;;;;;5.80;5.40;;;20.90;41.10;;;;;;4937297;29;20816;-66
2021/09/01 03:18:33;;;;;;;6.10;5.70;;;20.90;41.10;;;;;;4936749;29;20412;-65
2021/09/01 03:20:58;;;;;;;5.03;4.60;;;20.90;41.80;;;;;;4936788;29;20199;-66
2021/09/01 03:23:24;;;;;;;5.40;5.00;;;20.90;41.10;;;;;;4936947;29;20215;-66
2021/09/01 03:25:49;;;;;;;5.33;5.03;;;20.90;41.10;;;;;;4936827;29;20211;-66
2021/09/01 03:28:15;;;;;;;5.33;4.93;;;20.90;41.10;;;;;;4936688;29;20179;-65
2021/09/01 03:30:40;;;;;;;5.70;5.30;;;20.90;41.10;;;;;;4936337;29;20683;-66
2021/09/01 03:33:06;;;;;;;5.50;5.10;;;20.90;41.10;;;;;;4936618;29;20228;-67
2021/09/01 03:35:31;;;;;;;5.50;5.10;;;20.90;41.10;;;;;;4933042;29;20214;-66
2021/09/01 03:37:57;;;;;;;6.30;5.90;;;20.90;41.10;;;;;;4923031;29;20316;-65
2021/09/01 03:40:23;;;;;;;6.00;5.37;;;20.90;41.10;;;;;;4917358;29;20750;-66
2021/09/01 03:42:49;;;;;;;6.90;6.10;;;20.90;41.10;;;;;;4917510;29;20181;-66
2021/09/01 03:45:15;;;;;;;5.90;5.40;;;20.90;41.10;;;;;;4915967;29;20926;-67
2021/09/01 03:47:41;;;;;;;6.23;5.30;;;20.90;41.10;;;;;;4916616;29;20188;-66
2021/09/01 03:50:08;;;;;;;6.50;5.70;;;20.90;41.10;;;;;;4917100;29;20204;-66
2021/09/01 03:52:34;;;;;;;6.40;5.80;;;20.80;41.00;;;;;;4917042;29;20983;-66
2021/09/01 03:55:01;;;;;;;6.70;6.10;;;20.90;41.10;;;;;;4917264;29;20424;-65
2021/09/01 03:57:27;;;;;;;7.37;6.70;;;20.80;40.00;;;;;;4917201;29;20264;-66
2021/09/01 03:59:53;;;;;;;7.67;6.97;;;20.90;39.50;;;;;;4916837;29;20433;-66
2021/09/01 04:02:19;;;;;;;8.60;7.70;;;20.80;39.10;;;;;;4916873;29;20444;-66
2021/09/01 04:04:44;;;;;;;7.50;6.97;;;20.80;38.70;;;;;;4916572;29;20181;-66
2021/09/01 04:07:10;;;;;;;7.57;7.00;;;20.80;38.60;;;;;;4916493;29;20184;-64
2021/09/01 04:09:36;;;;;;;8.73;7.73;;;20.80;38.70;;;;;;4916182;29;20211;-66
2021/09/01 04:12:01;;;;;;;14.67;13.63;;;20.80;39.20;;;;;;4916846;29;20260;-66
2021/09/01 04:14:27;;;;;;;19.90;18.50;;;20.80;39.80;;;;;;4916777;29;20179;-66
2021/09/01 04:16:52;;;;;;;28.97;26.97;;;20.80;40.40;;;;;;4916940;29;20208;-65
2021/09/01 04:19:18;;;;;;;32.37;30.13;;;20.80;41.00;;;;;;4916508;29;20192;-66
2021/09/01 04:21:44;;;;;;;34.30;31.90;;;20.80;41.00;;;;;;4916837;29;20184;-66
2021/09/01 04:24:09;;;;;;;35.67;33.17;;;20.80;41.00;;;;;;4916699;29;20421;-66
2021/09/01 04:26:35;;;;;;;33.53;31.17;;;20.80;41.70;;;;;;4916602;29;20195;-66
2021/09/01 04:29:00;;;;;;;29.80;27.73;;;20.80;41.00;;;;;;4916216;29;20657;-64
2021/09/01 04:31:26;;;;;;;29.27;27.00;;;20.80;41.00;;;;;;4916516;29;20235;-67
2021/09/01 04:33:52;;;;;;;27.53;25.63;;;20.80;41.00;;;;;;4916532;29;20209;-65
2021/09/01 04:36:18;;;;;;;25.47;23.70;;;20.80;41.10;;;;;;4916560;29;20177;-66
2021/09/01 04:38:44;;;;;;;24.10;22.40;;;20.90;41.10;;;;;;4916224;29;20184;-66
2021/09/01 04:41:09;;;;;;;17.87;16.57;;;20.80;41.20;;;;;;4916308;29;20432;-66
2021/09/01 04:43:35;;;;;;;21.83;20.20;;;20.90;41.40;;;;;;4916325;29;20263;-64
2021/09/01 04:46:00;;;;;;;19.23;17.93;;;20.90;41.40;;;;;;4916424;29;20181;-66
2021/09/01 04:48:26;;;;;;;24.47;22.80;;;20.90;41.50;;;;;;4916119;29;20647;-65
2021/09/01 04:50:52;;;;;;;24.73;22.90;;;20.90;41.40;;;;;;4933321;28;20208;-66
2021/09/01 04:53:19;;;;;;;22.20;20.50;;;20.90;41.40;;;;;;4935187;29;20601;-65
2021/09/01 04:55:44;;;;;;;24.77;23.00;;;20.90;41.50;;;;;;4934978;29;20464;-65
2021/09/01 04:58:10;;;;;;;24.97;23.17;;;20.90;41.50;;;;;;4935006;29;20416;-66
2021/09/01 05:00:36;;;;;;;23.37;21.47;;;20.90;41.40;;;;;;4934660;29;20214;-65
2021/09/01 05:03:01;;;;;;;21.73;20.23;;;20.90;41.30;;;;;;4935096;29;20261;-65
2021/09/01 05:05:27;;;;;;;25.40;22.80;;;20.80;41.20;;;;;;4934888;29;20217;-65
2021/09/01 05:07:53;;;;;;;23.00;21.30;;;20.80;41.00;;;;;;4935060;29;20706;-65
2021/09/01 05:10:19;;;;;;;22.07;20.53;;;20.90;41.10;;;;;;4934480;29;20581;-65
2021/09/01 05:12:49;;;;;;;21.27;19.77;;;20.80;41.10;;;;;;4934647;29;20455;-65
2021/09/01 05:15:14;;;;;;;21.73;20.13;;;20.90;41.20;;;;;;4934999;29;20206;-64
2021/09/01 05:17:40;;;;;;;20.70;19.30;;;20.90;41.40;;;;;;4934855;29;20444;-65
2021/09/01 05:20:07;;;;;;;22.13;20.53;;;20.80;41.40;;;;;;4934555;29;20570;-65
2021/09/01 05:22:35;;;;;;;21.10;19.60;;;20.80;41.10;;;;;;4933822;29;20183;-65
2021/09/01 05:25:10;;;;;;;22.40;20.80;;;20.90;41.20;;;;;;4934724;29;20451;-66
2021/09/01 05:27:38;;;;;;;20.27;18.70;;;20.80;41.10;;;;;;4934619;29;20487;-65
2021/09/01 05:30:06;;;;;;;19.40;18.00;;;20.80;41.00;;;;;;4933220;29;20538;-65
2021/09/01 05:32:36;;;;;;;21.57;20.07;;;20.80;41.00;;;;;;4934371;29;20502;-64
2021/09/01 05:35:02;;;;;;;21.20;19.70;;;20.80;41.00;;;;;;4934601;29;20415;-65
2021/09/01 05:37:28;;;;;;;19.13;17.83;;;20.80;41.00;;;;;;4934595;29;20770;-65
2021/09/01 05:39:58;;;;;;;18.97;17.60;;;20.80;41.00;;;;;;4934571;29;20432;-65
2021/09/01 05:42:26;;;;;;;19.53;18.00;;;20.80;41.10;;;;;;4934636;29;20510;-64
2021/09/01 05:44:52;;;;;;;18.33;16.93;;;20.80;41.00;;;;;;4934534;29;20510;-65
2021/09/01 05:47:19;;;;;;;18.80;17.13;;;20.80;41.00;;;;;;4934479;29;20431;-63
2021/09/01 05:49:47;;;;;;;15.87;14.77;;;20.80;41.00;;;;;;4934343;29;20459;-65
2021/09/01 05:52:14;;;;;;;16.43;15.23;;;20.80;41.00;;;;;;4934386;29;20459;-65
2021/09/01 05:54:41;;;;;;;15.23;13.70;;;20.80;41.00;;;;;;4934357;29;20435;-64
2021/09/01 05:57:34;;;;;;;16.53;14.77;;;20.80;40.80;;;;;;4934456;29;20415;-64
2021/09/01 06:00:15;;;;;;;14.20;13.03;;;20.80;40.40;;;;;;4931462;29;20448;-65
2021/09/01 06:02:50;;;;;;;14.27;13.17;;;20.80;40.10;;;;;;4934396;29;20420;-62
2021/09/01 06:05:16;;;;;;;12.17;11.07;;;20.80;39.90;;;;;;4934557;29;20407;-64
2021/09/01 06:07:50;;;;;;;12.37;11.47;;;20.80;39.60;;;;;;4934274;29;20486;-64
2021/09/01 06:10:21;;;;;;;11.30;10.40;;;20.80;39.30;;;;;;4934060;29;21016;-64
2021/09/01 06:12:50;;;;;;;13.00;11.80;;;20.70;39.10;;;;;;4934068;29;20467;-64
2021/09/01 06:15:16;;;;;;;13.23;12.00;;;20.80;39.00;;;;;;4934294;29;20467;-64
2021/09/01 06:17:41;;;;;;;11.83;10.83;;;20.70;38.60;;;;;;4934336;29;20412;-64
2021/09/01 06:20:07;;;;;;;12.70;11.50;;;20.80;38.60;;;;;;4934081;29;20192;-64
2021/09/01 06:22:33;;;;;;;11.33;10.33;;;20.70;38.60;;;;;;4934193;29;20591;-64
2021/09/01 06:25:00;;;;;;;11.37;10.23;;;20.70;38.80;;;;;;4934057;29;20416;-63
2021/09/01 06:27:25;;;;;;;11.33;10.43;;;20.70;39.00;;;;;;4934019;29;20677;-64
2021/09/01 06:29:51;;;;;;;10.67;9.87;;;20.70;39.70;;;;;;4933826;29;20483;-64
2021/09/01 06:32:16;;;;;;;11.07;9.97;;;20.70;39.20;;;;;;4934174;29;20208;-64
2021/09/01 06:34:42;;;;;;;10.60;9.70;;;20.70;39.20;;;;;;4937526;29;20185;-64
2021/09/01 06:37:07;;;;;;;11.63;10.67;;;20.70;39.20;;;;;;4937720;29;20176;-64
2021/09/01 06:39:33;;;;;;;10.83;9.93;;;20.70;39.30;;;;;;4937252;29;20650;-65
2021/09/01 06:41:58;;;;;;;10.13;9.23;;;20.70;39.30;;;;;;4937469;29;20255;-64
2021/09/01 06:44:24;;;;;;;11.53;10.60;;;20.70;39.40;;;;;;4937649;29;20180;-66
2021/09/01 06:46:49;;;;;;;11.90;10.70;;;20.70;39.40;;;;;;4937246;29;20204;-65
2021/09/01 06:49:15;;;;;;;11.03;9.93;;;20.70;39.40;;;;;;4935327;29;20215;-65
2021/09/01 06:51:41;;;;;;;11.43;10.43;;;20.70;39.50;;;;;;4935660;29;20230;-65
2021/09/01 06:54:06;;;;;;;11.07;10.07;;;20.70;39.50;;;;;;4935240;29;20786;-65
2021/09/01 06:56:32;;;;;;;13.30;10.27;;;20.70;39.60;;;;;;4936645;29;20866;-65
2021/09/01 06:58:57;;;;;;;11.73;10.63;;;20.70;39.70;;;;;;4936851;29;20179;-64
2021/09/01 07:01:23;;;;;;;10.60;9.50;;;20.70;39.80;;;;;;4936959;29;20195;-64
2021/09/01 07:03:51;;;;;;;10.70;9.73;;;20.70;39.90;;;;;;4936782;29;20180;-65
2021/09/01 07:06:16;;;;;;;10.33;9.00;;;20.80;40.00;;;;;;4936687;29;20172;-65
2021/09/01 07:08:42;;;;;;;11.03;10.10;;;20.80;40.20;;;;;;4936721;29;20806;-66
2021/09/01 07:11:07;;;;;;;10.10;9.30;;;20.70;40.10;;;;;;4936415;29;20235;-65
2021/09/01 07:13:33;;;;;;;10.17;9.30;;;20.70;40.20;;;;;;4936440;29;20219;-66
2021/09/01 07:15:58;;;;;;;10.60;9.70;;;20.70;40.20;;;;;;4936745;29;20534;-64
2021/09/01 07:18:24;;;;;;;10.30;9.43;;;20.80;40.20;;;;;;4936576;29;20180;-65
2021/09/01 07:20:49;;;;;;;11.73;10.57;;;20.70;40.20;;;;;;4936600;29;20208;-66
2021/09/01 07:23:16;;;;;;;8.40;7.70;;;20.80;40.30;;;;;;4936600;29;20188;-66
2021/09/01 07:25:42;;;;;;;9.40;8.47;;;20.70;40.30;;;;;;4936501;29;20184;-66
2021/09/01 07:28:07;;;;;;;10.50;9.60;;;20.80;40.40;;;;;;4936364;29;20420;-65
2021/09/01 07:30:33;;;;;;;10.20;9.30;;;20.80;40.50;;;;;;4936361;29;20624;-67
2021/09/01 07:32:59;;;;;;;10.63;9.70;;;20.80;40.60;;;;;;4936500;29;20222;-66
2021/09/01 07:35:24;;;;;;;9.07;8.27;;;20.80;40.50;;;;;;4936228;29;20576;-66
2021/09/01 07:37:51;;;;;;;10.70;9.60;;;20.80;40.60;;;;;;4936366;29;20653;-66
2021/09/01 07:40:19;;;;;;;10.07;9.17;;;20.80;40.60;;;;;;4936042;29;20196;-66
2021/09/01 07:42:45;;;;;;;9.60;8.77;;;20.80;40.70;;;;;;4936469;29;20512;-66
2021/09/01 07:45:12;;;;;;;10.33;9.37;;;20.80;40.70;;;;;;4935560;29;20510;-66
2021/09/01 07:47:45;;;;;;;10.00;8.80;;;20.80;40.70;;;;;;4936175;29;20555;-65
2021/09/01 07:50:11;;;;;;;9.27;8.33;;;20.80;40.80;;;;;;4936089;29;20443;-66
2021/09/01 07:52:36;;;;;;;10.60;9.60;;;20.80;40.80;;;;;;4936088;29;20954;-65
2021/09/01 07:55:02;;;;;;;10.50;9.40;;;20.90;41.20;;;;;;4935852;29;20184;-66
2021/09/01 07:57:28;;;;;;;9.40;8.50;;;20.90;41.10;;;;;;4936003;29;20590;-67
2021/09/01 07:59:53;;;;;;;9.90;9.10;;;20.90;41.10;;;;;;4935622;29;20224;-63
2021/09/01 08:02:18;;;;;;;9.27;8.37;;;20.90;41.10;;;;;;4935876;29;20196;-65
2021/09/01 08:04:44;;;;;;;9.27;8.47;;;20.80;41.00;;;;;;4935723;29;20231;-65
2021/09/01 08:07:10;;;;;;;8.37;7.57;;;20.90;41.10;;;;;;4935883;29;20180;-65
2021/09/01 08:09:35;;;;;;;9.40;8.70;;;20.90;41.10;;;;;;4935319;29;20637;-66
2021/09/01 08:12:01;;;;;;;10.00;9.00;;;20.90;41.10;;;;;;4935431;29;20220;-64
2021/09/01 08:14:26;;;;;;;10.23;9.30;;;20.90;41.10;;;;;;4935791;29;20594;-65
2021/09/01 08:16:52;;;;;;;9.30;8.50;;;20.90;41.10;;;;;;4935586;29;20176;-65
2021/09/01 08:19:17;;;;;;;9.40;8.60;;;20.90;41.10;;;;;;4935435;29;20200;-65
2021/09/01 08:21:43;;;;;;;9.47;8.67;;;20.90;41.20;;;;;;4935594;29;20176;-65
2021/09/01 08:24:09;;;;;;;8.43;7.90;;;20.90;41.10;;;;;;4935556;29;20542;-66
2021/09/01 08:26:34;;;;;;;9.43;8.70;;;20.80;41.00;;;;;;4935480;29;20566;-65
2021/09/01 08:29:00;;;;;;;8.80;7.93;;;20.90;41.10;;;;;;4935351;29;20420;-66
2021/09/01 08:31:25;;;;;;;8.90;8.20;;;20.90;41.10;;;;;;4935343;29;20882;-65
2021/09/01 08:33:51;;;;;;;9.83;9.00;;;20.90;41.10;;;;;;4935474;29;20176;-65
2021/09/01 08:36:16;;;;;;;8.87;8.03;;;20.90;41.10;;;;;;4935363;29;20203;-66
2021/09/01 08:38:42;;;;;;;8.67;7.97;;;20.90;41.10;;;;;;4933578;29;20251;-65
2021/09/01 08:41:09;;;;;;;9.30;8.50;;;20.90;41.10;;;;;;4935209;29;20601;-65
2021/09/01 08:43:34;;;;;;;10.53;9.63;;;21.00;41.20;;;;;;4934965;29;20206;-65
2021/09/01 08:46:02;;;;;;;9.30;8.43;;;21.00;41.20;;;;;;4935260;29;20416;-63
2021/09/01 08:48:28;;;;;;;8.43;7.73;;;21.10;41.30;;;;;;4934941;29;20188;-65
2021/09/01 08:50:54;;;;;;;9.33;8.30;;;21.10;41.20;;;;;;4934912;29;20583;-65
2021/09/01 08:53:20;;;;;;;9.00;8.20;;;21.10;41.30;;;;;;4934857;29;20408;-66
2021/09/01 08:55:49;;;;;;;9.03;8.40;;;21.10;41.30;;;;;;4934826;29;20424;-66
2021/09/01 08:58:15;;;;;;;9.43;8.60;;;21.20;41.40;;;;;;4934824;29;20172;-66
2021/09/01 09:00:41;;;;;;;9.50;8.80;;;21.20;41.20;;;;;;4934566;29;20443;-67
2021/09/01 09:03:08;;;;;;;9.57;8.10;;;21.20;41.20;;;;;;4934943;29;20467;-66
2021/09/01 09:05:36;;;;;;;9.33;8.53;;;21.20;41.10;;;;;;4934815;29;20643;-66
2021/09/01 09:08:08;;;;;;;9.57;8.07;;;21.20;41.00;;;;;;4934854;29;21089;-64
2021/09/01 09:10:39;;;;;;;9.40;8.50;;;21.20;40.90;;;;;;4934528;29;20872;-65
2021/09/01 09:13:15;;;;;;;8.33;7.67;;;21.20;40.90;;;;;;4934683;29;20563;-65
2021/09/01 09:15:42;;;;;;;8.37;7.73;;;21.20;40.80;;;;;;4934711;29;20411;-66
2021/09/01 09:18:28;;;;;;;8.50;7.70;;;21.20;40.80;;;;;;4934470;29;20423;-66
2021/09/01 09:21:15;;;;;;;8.80;8.00;;;21.20;40.70;;;;;;4934542;29;20432;-65
2021/09/01 09:23:42;;;;;;;8.63;8.00;;;21.20;40.70;;;;;;4934526;29;20408;-65
2021/09/01 09:26:29;;;;;;;9.00;8.20;;;21.20;40.50;;;;;;4934644;29;20440;-65
2021/09/01 09:29:08;;;;;;;8.43;7.70;;;21.20;40.60;;;;;;4934265;29;20420;-65
2021/09/01 09:31:34;;;;;;;9.07;8.17;;;21.30;40.60;;;;;;4934293;29;20605;-66
2021/09/01 09:34:35;;;;;;;8.70;7.90;;;21.30;40.50;;;;;;4934470;29;20510;-66
2021/09/01 09:37:08;;;;;;;8.60;7.90;;;21.30;40.50;;;;;;4932966;29;20831;-66
2021/09/01 09:39:42;;;;;;;8.47;7.87;;;21.30;40.60;;;;;;4934421;29;20431;-65
2021/09/01 09:42:11;;;;;;;8.53;7.83;;;21.30;40.60;;;;;;4934623;29;20520;-66
2021/09/01 09:44:38;;;;;;;7.97;6.70;;;21.30;40.50;;;;;;4934604;29;20830;-66
2021/09/01 09:47:04;;;;;;;8.20;7.50;;;21.30;40.50;;;;;;4934357;29;20479;-66
2021/09/01 09:49:31;;;;;;;8.30;7.70;;;21.30;40.50;;;;;;4934015;29;20444;-66
2021/09/01 09:51:56;;;;;;;8.50;7.80;;;21.30;40.40;;;;;;4934194;29;20463;-65
2021/09/01 09:54:27;;;;;;;7.53;6.93;;;21.30;40.40;;;;;;4934366;29;20547;-65
2021/09/01 09:57:13;;;;;;;7.57;7.07;;;21.30;40.20;;;;;;4934381;29;20666;-67
2021/09/01 09:59:39;;;;;;;7.40;6.70;;;21.40;40.30;;;;;;4933762;29;20539;-65
2021/09/01 10:02:06;;;;;;;7.80;7.20;;;21.40;40.30;;;;;;4934216;29;20439;-64
2021/09/01 10:04:31;;;;;;;7.53;6.87;;;21.40;40.30;;;;;;4934179;29;20949;-65
2021/09/01 10:06:57;;;;;;;7.90;7.20;;;21.40;40.20;;;;;;4934229;29;20416;-65
2021/09/01 10:09:24;;;;;;;7.70;7.20;;;21.40;40.00;;;;;;4937313;29;20196;-66
2021/09/01 10:11:50;;;;;;;7.40;6.80;;;21.40;40.00;;;;;;4938346;29;20195;-66
2021/09/01 10:14:20;;;;;;;6.83;6.30;;;21.40;40.00;;;;;;4937971;29;20922;-66
2021/09/01 10:16:58;;;;;;;7.80;7.20;;;21.40;40.00;;;;;;4938126;29;20176;-65
2021/09/01 10:19:27;;;;;;;7.90;7.40;;;21.40;40.00;;;;;;4937574;29;20434;-67
2021/09/01 10:22:03;;;;;;;7.67;7.13;;;21.40;39.80;;;;;;4937649;29;21092;-66
2021/09/01 10:24:34;;;;;;;6.57;6.17;;;21.40;39.60;;;;;;4937754;29;20422;-66
2021/09/01 10:27:03;;;;;;;6.63;6.03;;;21.40;39.70;;;;;;4937498;29;20420;-66
2021/09/01 10:29:55;;;;;;;7.30;6.70;;;21.40;39.70;;;;;;4937405;29;20510;-66
2021/09/01 10:32:24;;;;;;;8.00;7.20;;;21.40;39.70;;;;;;4937598;29;20542;-66
2021/09/01 10:35:10;;;;;;;6.93;6.23;;;21.40;39.80;;;;;;4937390;29;20415;-66
2021/09/01 10:37:43;;;;;;;8.20;7.60;;;21.40;39.90;;;;;;4937464;29;20500;-66
2021/09/01 10:40:21;;;;;;;7.27;6.63;;;21.40;40.00;;;;;;4937198;29;20442;-66
2021/09/01 10:42:48;;;;;;;7.17;6.67;;;21.50;40.20;;;;;;4937358;29;20910;-67
2021/09/01 10:45:21;;;;;;;7.13;6.53;;;21.50;40.00;;;;;;4937196;29;20423;-66
2021/09/01 10:47:52;;;;;;;6.80;6.20;;;21.50;39.90;;;;;;4936988;29;20428;-66
2021/09/01 10:50:28;;;;;;;7.80;7.30;;;21.50;39.90;;;;;;4937077;29;20439;-67
2021/09/01 10:53:03;;;;;;;7.77;7.17;;;21.50;39.80;;;;;;4937016;29;20463;-67
2021/09/01 10:55:29;;;;;;;7.40;6.90;;;21.50;40.00;;;;;;4937287;29;20411;-67
2021/09/01 10:58:14;;;;;;;7.73;7.00;;;21.50;40.00;;;;;;4937125;29;20416;-65
2021/09/01 11:00:41;;;;;;;8.33;7.33;;;21.60;39.90;;;;;;4936941;29;20444;-66
2021/09/01 11:03:07;;;;;;;8.33;7.63;;;21.50;39.70;;;;;;4937117;29;20443;-66
2021/09/01 11:05:32;;;;;;;6.67;6.17;;;21.50;39.70;;;;;;4936927;29;20411;-65
2021/09/01 11:07:58;;;;;;;7.17;6.57;;;21.50;39.50;;;;;;4936881;29;20408;-66
2021/09/01 11:10:26;;;;;;;6.80;6.30;;;21.50;39.70;;;;;;4936538;29;20200;-66
2021/09/01 11:13:02;;;;;;;8.43;6.50;;;21.50;39.70;;;;;;4936603;29;20212;-66
2021/09/01 11:15:42;;;;;;;7.20;6.70;;;21.50;39.70;;;;;;4937082;29;20482;-66
2021/09/01 11:18:08;;;;;;;6.50;6.00;;;21.50;39.70;;;;;;4936590;29;20420;-66
2021/09/01 11:20:34;;;;;;;7.83;7.10;;;21.50;39.80;;;;;;4936364;29;20431;-65
2021/09/01 11:23:02;;;;;;;6.60;6.10;;;21.40;39.70;;;;;;4936474;29;20492;-65
2021/09/01 11:25:29;;;;;;;6.43;6.03;;;21.40;39.60;;;;;;4936468;29;20921;-66
2021/09/01 11:27:57;;;;;;;7.30;6.70;;;21.40;39.80;;;;;;4936566;29;20741;-66
2021/09/01 11:30:33;;;;;;;6.33;5.83;;;21.40;39.80;;;;;;4936498;29;20436;-67
2021/09/01 11:32:59;;;;;;;6.40;6.00;;;21.50;39.70;;;;;;4936411;29;20468;-67
2021/09/01 11:35:27;;;;;;;6.57;6.07;;;21.50;39.60;;;;;;4936157;29;20412;-66
2021/09/01 11:38:08;;;;;;;6.63;6.13;;;21.40;39.50;;;;;;4936328;29;20412;-66
2021/09/01 11:40:36;;;;;;;7.30;6.80;;;21.40;39.50;;;;;;4936300;29;20438;-67
2021/09/01 11:43:10;;;;;;;7.30;6.77;;;21.40;39.50;;;;;;4936445;29;20412;-66
2021/09/01 11:45:49;;;;;;;6.30;5.80;;;21.40;39.60;;;;;;4936187;29;20419;-67
2021/09/01 11:48:15;;;;;;;5.90;5.50;;;21.40;39.60;;;;;;4936159;29;20501;-65
2021/09/01 11:50:42;;;;;;;6.33;5.73;;;21.40;39.70;;;;;;4935898;29;20432;-66
2021/09/01 11:53:12;;;;;;;6.90;6.40;;;21.40;39.70;;;;;;4936229;29;20499;-66
2021/09/01 11:55:38;;;;;;;7.17;6.57;;;21.40;39.60;;;;;;4936103;29;20423;-66
2021/09/01 11:58:18;;;;;;;6.10;5.70;;;21.40;39.60;;;;;;4931898;29;20439;-66
2021/09/01 12:00:45;;;;;;;7.07;6.57;;;21.40;39.60;;;;;;4931404;29;20503;-67
2021/09/01 12:03:11;;;;;;;7.20;6.67;;;21.40;39.50;;;;;;4931928;29;20487;-66
2021/09/01 12:05:40;;;;;;;6.23;5.83;;;21.40;39.50;;;;;;4931784;29;21069;-66
2021/09/01 12:08:15;;;;;;;6.93;6.33;;;21.40;39.60;;;;;;4931983;29;20460;-66
2021/09/01 12:10:41;;;;;;;6.13;5.73;;;21.40;39.60;;;;;;4933335;29;20495;-66
2021/09/01 12:13:06;;;;;;;6.97;6.37;;;21.40;39.60;;;;;;4932083;29;20475;-66
2021/09/01 12:15:32;;;;;;;7.27;6.67;;;21.40;39.50;;;;;;4932486;29;20184;-65
2021/09/01 12:18:05;;;;;;;6.63;6.13;;;21.40;39.60;;;;;;4931280;29;20707;-66
2021/09/01 12:20:34;;;;;;;6.33;5.83;;;21.40;39.50;;;;;;4931782;29;20235;-67
2021/09/01 12:23:00;;;;;;;5.83;5.43;;;21.40;39.50;;;;;;4932733;29;20481;-66
2021/09/01 12:25:28;;;;;;;6.03;5.53;;;21.40;40.10;;;;;;4931661;29;20471;-67
2021/09/01 12:28:07;;;;;;;6.30;5.87;;;21.50;39.50;;;;;;4931556;29;20420;-67
2021/09/01 12:30:35;;;;;;;7.53;7.00;;;21.50;39.50;;;;;;4929699;29;20451;-65
2021/09/01 12:33:21;;;;;;;6.70;6.10;;;21.50;39.50;;;;;;4931775;29;20490;-66
2021/09/01 12:35:58;;;;;;;6.23;5.80;;;21.40;39.40;;;;;;4930331;29;20447;-67
2021/09/01 12:38:26;;;;;;;6.20;5.80;;;21.40;39.40;;;;;;4928852;29;20753;-67
2021/09/01 12:40:52;;;;;;;6.73;6.23;;;21.40;39.40;;;;;;4931820;29;20444;-66
2021/09/01 12:43:19;;;;;;;7.00;6.50;;;21.50;39.50;;;;;;4931776;29;20471;-67